createdAt,value
2019-03-09T00:00:51.971Z,4.10
2019-03-09T00:03:20.608Z,5.25
2019-03-09T00:05:49.238Z,4.58
2019-03-09T00:08:17.951Z,6.08
2019-03-09T00:10:46.596Z,6.30
2019-03-09T00:13:15.271Z,5.30
2019-03-09T00:15:43.912Z,4.53
2019-03-09T00:18:12.555Z,2.87
2019-03-09T00:20:41.198Z,4.95
2019-03-09T00:23:37.863Z,3.37
2019-03-09T00:26:28.648Z,4.07
2019-03-09T00:29:10.372Z,3.90
2019-03-09T00:31:44.029Z,4.35
2019-03-09T00:34:12.670Z,7.92
2019-03-09T00:36:41.283Z,4.55
2019-03-09T00:39:10.294Z,10.32
2019-03-09T00:41:38.912Z,4.37
2019-03-09T00:44:07.625Z,7.03
2019-03-09T00:46:36.338Z,4.10
2019-03-09T00:49:05.139Z,5.90
2019-03-09T00:51:33.750Z,5.17
2019-03-09T00:54:02.472Z,1.95
2019-03-09T00:56:31.186Z,10.68
2019-03-09T00:58:59.801Z,4.97
2019-03-09T01:01:28.448Z,2.05
2019-03-09T01:03:57.143Z,5.78
2019-03-09T01:06:25.809Z,4.58
2019-03-09T01:08:54.430Z,8.75
2019-03-09T01:11:23.089Z,4.28
2019-03-09T01:13:51.789Z,6.22
2019-03-09T01:16:20.459Z,4.60
2019-03-09T01:18:49.035Z,2.98
2019-03-09T01:21:17.673Z,3.08
2019-03-09T01:23:46.347Z,2.90
2019-03-09T01:26:15.041Z,4.10
2019-03-09T01:28:43.681Z,3.55
2019-03-09T01:31:12.380Z,2.83
2019-03-09T01:33:41.117Z,4.47
2019-03-09T01:36:09.735Z,4.03
2019-03-09T01:38:38.447Z,5.10
2019-03-09T01:41:07.103Z,8.03
2019-03-09T01:43:35.798Z,3.10
2019-03-09T01:46:04.535Z,4.22
2019-03-09T01:48:33.169Z,3.15
2019-03-09T01:51:01.880Z,6.70
2019-03-09T01:53:36.745Z,3.20
2019-03-09T01:56:00.913Z,3.65
2019-03-09T01:58:29.527Z,5.53
2019-03-09T02:00:58.262Z,2.77
2019-03-09T02:03:26.906Z,7.25
2019-03-09T02:05:55.638Z,7.10
2019-03-09T02:08:24.257Z,5.63
2019-03-09T02:10:52.891Z,5.15
2019-03-09T02:13:21.511Z,3.00
2019-03-09T02:15:50.232Z,1.87
2019-03-09T02:18:18.854Z,7.75
2019-03-09T02:20:47.494Z,2.45
2019-03-09T02:23:16.120Z,7.60
2019-03-09T02:25:44.771Z,5.92
2019-03-09T02:28:13.385Z,4.27
2019-03-09T02:30:42.045Z,3.07
2019-03-09T02:33:10.676Z,3.30
2019-03-09T02:35:39.390Z,4.35
2019-03-09T02:38:15.542Z,2.77
2019-03-09T02:40:44.180Z,3.25
2019-03-09T02:43:12.802Z,3.13
2019-03-09T02:45:41.488Z,8.50
2019-03-09T02:48:10.107Z,5.20
2019-03-09T02:50:55.447Z,3.37
2019-03-09T02:53:25.169Z,6.75
2019-03-09T02:55:53.861Z,5.62
2019-03-09T02:58:22.570Z,7.22
2019-03-09T03:01:03.649Z,4.60
2019-03-09T03:03:32.245Z,3.37
2019-03-09T03:06:00.991Z,6.27
2019-03-09T03:08:29.789Z,2.65
2019-03-09T03:10:58.433Z,2.33
2019-03-09T03:13:27.087Z,4.63
2019-03-09T03:15:55.705Z,4.10
2019-03-09T03:18:24.344Z,5.80
2019-03-09T03:20:52.952Z,2.80
2019-03-09T03:23:21.725Z,8.08
2019-03-09T03:25:50.425Z,10.10
2019-03-09T03:28:19.062Z,1.97
2019-03-09T03:30:47.778Z,2.55
2019-03-09T03:33:16.452Z,5.33
2019-03-09T03:35:45.090Z,4.87
2019-03-09T03:38:13.705Z,4.93
2019-03-09T03:40:42.323Z,4.67
2019-03-09T03:43:10.967Z,5.05
2019-03-09T03:45:39.590Z,6.08
2019-03-09T03:48:08.230Z,7.10
2019-03-09T03:50:36.851Z,6.17
2019-03-09T03:53:05.559Z,5.85
2019-03-09T03:55:34.262Z,5.25
2019-03-09T03:58:02.886Z,8.55
2019-03-09T04:00:31.518Z,6.05
2019-03-09T04:03:00.222Z,4.15
2019-03-09T04:05:28.963Z,3.87
2019-03-09T04:07:57.674Z,6.00
2019-03-09T04:10:26.989Z,3.70
2019-03-09T04:12:56.032Z,4.28
2019-03-09T04:15:24.735Z,4.70
2019-03-09T04:17:53.403Z,5.62
2019-03-09T04:20:22.113Z,6.12
2019-03-09T04:22:50.742Z,4.05
2019-03-09T04:25:19.371Z,4.47
2019-03-09T04:27:48.077Z,5.20
2019-03-09T04:30:16.793Z,4.10
2019-03-09T04:32:45.481Z,3.37
2019-03-09T04:35:14.295Z,3.17
2019-03-09T04:37:42.970Z,2.90
2019-03-09T04:40:11.777Z,3.17
2019-03-09T04:42:40.438Z,2.65
2019-03-09T04:45:09.127Z,2.25
2019-03-09T04:47:37.783Z,3.17
2019-03-09T04:50:06.553Z,1.85
2019-03-09T04:52:35.183Z,3.50
2019-03-09T04:55:03.848Z,1.70
2019-03-09T04:57:32.561Z,4.35
2019-03-09T05:00:01.192Z,4.05
2019-03-09T05:02:29.849Z,1.50
2019-03-09T05:04:58.986Z,3.25
2019-03-09T05:07:57.537Z,1.80
2019-03-09T05:10:30.086Z,1.55
2019-03-09T05:13:02.401Z,2.20
2019-03-09T05:15:31.000Z,1.50
2019-03-09T05:17:59.652Z,3.45
2019-03-09T05:20:28.344Z,2.05
2019-03-09T05:22:56.964Z,1.98
2019-03-09T05:25:25.599Z,1.92
2019-03-09T05:27:54.232Z,1.55
2019-03-09T05:30:38.033Z,1.72
2019-03-09T05:33:06.735Z,3.90
2019-03-09T05:35:35.358Z,1.20
2019-03-09T05:38:04.081Z,1.50
2019-03-09T05:40:32.779Z,2.20
2019-03-09T05:43:01.444Z,1.90
2019-03-09T05:45:30.108Z,1.70
2019-03-09T05:47:58.726Z,1.90
2019-03-09T05:50:27.445Z,4.40
2019-03-09T05:53:03.347Z,2.35
2019-03-09T05:55:32.027Z,1.90
2019-03-09T05:58:00.645Z,0.98
2019-03-09T06:00:29.355Z,2.37
2019-03-09T06:02:59.397Z,1.10
2019-03-09T06:05:48.531Z,1.60
2019-03-09T06:08:17.222Z,0.82
2019-03-09T06:10:45.870Z,1.70
2019-03-09T06:13:14.481Z,2.15
2019-03-09T06:15:43.215Z,2.25
2019-03-09T06:18:11.829Z,1.65
2019-03-09T06:20:40.592Z,2.15
2019-03-09T06:23:09.205Z,1.70
2019-03-09T06:25:38.730Z,1.35
2019-03-09T06:28:07.463Z,2.30
2019-03-09T06:30:36.115Z,2.20
2019-03-09T06:33:19.064Z,1.17
2019-03-09T06:35:49.743Z,1.35
2019-03-09T06:38:35.230Z,2.12
2019-03-09T06:41:04.059Z,1.32
2019-03-09T06:43:32.731Z,1.87
2019-03-09T06:46:01.445Z,1.98
2019-03-09T06:48:30.083Z,1.07
2019-03-09T06:50:58.734Z,1.40
2019-03-09T06:53:27.383Z,1.40
2019-03-09T06:55:56.138Z,0.93
2019-03-09T06:58:24.800Z,3.50
2019-03-09T07:00:53.541Z,2.87
2019-03-09T07:03:22.216Z,1.55
2019-03-09T07:05:50.921Z,1.20
2019-03-09T07:08:19.570Z,2.00
2019-03-09T07:10:48.345Z,1.00
2019-03-09T07:13:17.167Z,1.30
2019-03-09T07:15:46.672Z,2.08
2019-03-09T07:18:36.260Z,2.60
2019-03-09T07:21:05.218Z,1.30
2019-03-09T07:23:33.790Z,3.37
2019-03-09T07:26:03.012Z,1.27
2019-03-09T07:28:31.648Z,1.75
2019-03-09T07:31:00.366Z,1.82
2019-03-09T07:33:29.153Z,1.52
2019-03-09T07:35:57.805Z,1.10
2019-03-09T07:38:26.523Z,1.35
2019-03-09T07:40:55.171Z,1.50
2019-03-09T07:43:23.850Z,2.50
2019-03-09T07:45:52.462Z,1.20
2019-03-09T07:48:21.095Z,2.27
2019-03-09T07:50:49.744Z,1.00
2019-03-09T07:53:18.449Z,1.57
2019-03-09T07:55:47.107Z,0.90
2019-03-09T07:58:15.758Z,1.77
2019-03-09T08:00:44.739Z,1.32
2019-03-09T08:03:13.507Z,2.07
2019-03-09T08:05:42.167Z,3.90
2019-03-09T08:08:10.802Z,1.17
2019-03-09T08:10:39.496Z,1.90
2019-03-09T08:13:08.108Z,1.40
2019-03-09T08:15:36.751Z,1.13
2019-03-09T08:18:05.388Z,1.63
2019-03-09T08:20:34.049Z,1.30
2019-03-09T08:23:02.972Z,1.53
2019-03-09T08:25:31.602Z,1.80
2019-03-09T08:28:00.218Z,0.90
2019-03-09T08:30:28.949Z,1.40
2019-03-09T08:32:57.656Z,1.77
2019-03-09T08:35:26.339Z,1.30
2019-03-09T08:37:54.969Z,3.37
2019-03-09T08:40:23.826Z,3.60
2019-03-09T08:43:01.909Z,1.80
2019-03-09T08:45:30.660Z,1.67
2019-03-09T08:47:59.369Z,1.50
2019-03-09T08:50:28.118Z,2.80
2019-03-09T08:52:56.741Z,2.00
2019-03-09T08:55:25.454Z,1.40
2019-03-09T08:57:54.165Z,1.97
2019-03-09T09:00:43.435Z,1.77
2019-03-09T09:03:12.011Z,1.80
2019-03-09T09:05:40.696Z,2.33
2019-03-09T09:08:09.326Z,2.33
2019-03-09T09:10:37.972Z,1.63
2019-03-09T09:13:06.588Z,1.57
2019-03-09T09:19:21.615Z,1.83
2019-03-09T09:21:50.278Z,1.87
2019-03-09T09:24:18.907Z,2.53
2019-03-09T09:26:58.548Z,2.20
2019-03-09T09:29:29.954Z,2.47
2019-03-09T09:31:58.684Z,1.57
2019-03-09T09:34:27.334Z,3.00
2019-03-09T09:36:56.003Z,1.53
2019-03-09T09:39:24.645Z,1.30
2019-03-09T09:41:53.286Z,2.77
2019-03-09T09:44:21.992Z,3.90
2019-03-09T09:46:50.629Z,1.90
2019-03-09T09:49:19.284Z,5.20
2019-03-09T09:51:47.944Z,2.73
2019-03-09T09:54:16.654Z,1.57
2019-03-09T09:56:45.323Z,1.93
2019-03-09T09:59:14.570Z,1.30
2019-03-09T10:01:43.462Z,1.17
2019-03-09T10:04:12.061Z,1.70
2019-03-09T10:06:40.775Z,3.00
2019-03-09T10:09:09.667Z,1.30
2019-03-09T10:11:38.301Z,1.63
2019-03-09T10:14:07.075Z,1.00
2019-03-09T10:16:35.810Z,1.20
2019-03-09T10:19:04.528Z,1.63
2019-03-09T10:21:33.270Z,5.87
2019-03-09T10:24:01.915Z,1.73
2019-03-09T10:26:30.547Z,1.50
2019-03-09T10:28:59.196Z,2.07
2019-03-09T10:31:27.904Z,1.13
2019-03-09T10:33:56.644Z,5.00
2019-03-09T10:36:25.275Z,1.47
2019-03-09T10:38:54.058Z,2.57
2019-03-09T10:41:22.664Z,1.83
2019-03-09T10:43:51.346Z,1.20
2019-03-09T10:46:23.731Z,1.93
2019-03-09T10:48:52.410Z,2.37
2019-03-09T10:51:21.034Z,2.33
2019-03-09T10:53:49.723Z,2.30
2019-03-09T10:56:18.368Z,4.07
2019-03-09T10:58:47.260Z,2.20
2019-03-09T11:01:15.908Z,2.33
2019-03-09T11:03:44.606Z,1.60
2019-03-09T11:06:13.369Z,2.30
2019-03-09T11:08:44.606Z,1.90
2019-03-09T11:11:13.255Z,1.67
2019-03-09T11:13:51.367Z,1.73
2019-03-09T11:16:12.763Z,3.10
2019-03-09T11:18:41.394Z,3.20
2019-03-09T11:21:10.447Z,4.50
2019-03-09T11:23:39.617Z,3.30
2019-03-09T11:26:18.020Z,3.47
2019-03-09T11:28:46.752Z,2.50
2019-03-09T11:31:15.393Z,3.10
2019-03-09T11:33:44.081Z,4.67
2019-03-09T11:36:12.764Z,2.80
2019-03-09T11:38:41.402Z,3.57
2019-03-09T11:41:18.808Z,2.40
2019-03-09T11:43:40.427Z,2.47
2019-03-09T11:46:09.065Z,3.30
2019-03-09T11:48:37.694Z,3.47
2019-03-09T11:51:06.401Z,2.93
2019-03-09T11:53:35.210Z,2.70
2019-03-09T11:56:04.166Z,2.90
2019-03-09T11:58:33.162Z,2.90
2019-03-09T12:01:01.795Z,2.50
2019-03-09T12:03:30.516Z,3.00
2019-03-09T12:05:59.133Z,2.97
2019-03-09T12:08:27.781Z,2.93
2019-03-09T12:10:56.479Z,2.50
2019-03-09T12:13:25.256Z,3.17
2019-03-09T12:15:53.991Z,2.00
2019-03-09T12:18:22.713Z,3.00
2019-03-09T12:20:51.401Z,4.03
2019-03-09T12:23:21.938Z,3.37
2019-03-09T12:25:50.795Z,2.27
2019-03-09T12:28:19.460Z,2.70
2019-03-09T12:30:48.078Z,2.47
2019-03-09T12:33:16.715Z,2.00
2019-03-09T12:35:45.416Z,2.30
2019-03-09T12:38:14.594Z,1.90
2019-03-09T12:40:43.853Z,2.20
2019-03-09T12:43:12.655Z,3.10
2019-03-09T12:45:41.457Z,1.60
2019-03-09T12:48:10.397Z,2.30
2019-03-09T12:50:39.522Z,2.40
2019-03-09T12:53:08.530Z,1.73
2019-03-09T12:55:41.020Z,3.70
2019-03-09T12:58:10.051Z,2.03
2019-03-09T13:00:39.594Z,2.03
2019-03-09T13:03:11.085Z,2.00
2019-03-09T13:05:39.919Z,2.77
2019-03-09T13:08:08.712Z,2.57
2019-03-09T13:10:37.695Z,3.13
2019-03-09T13:13:06.736Z,3.13
2019-03-09T13:15:37.125Z,2.67
2019-03-09T13:18:07.818Z,3.30
2019-03-09T13:20:36.849Z,3.33
2019-03-09T13:23:06.252Z,2.57
2019-03-09T13:25:35.505Z,3.27
2019-03-09T13:28:07.776Z,3.03
2019-03-09T13:30:37.769Z,1.80
2019-03-09T13:33:06.700Z,2.47
2019-03-09T13:35:35.452Z,2.73
2019-03-09T13:38:05.399Z,2.53
2019-03-09T13:40:34.043Z,3.30
2019-03-09T13:43:04.350Z,2.70
2019-03-09T13:45:34.845Z,2.10
2019-03-09T13:48:04.318Z,2.40
2019-03-09T13:50:35.230Z,2.93
2019-03-09T13:53:04.209Z,2.60
2019-03-09T13:55:33.094Z,3.07
2019-03-09T13:58:02.619Z,2.57
2019-03-09T14:00:40.389Z,1.90
2019-03-09T14:03:04.259Z,1.57
2019-03-09T14:05:33.288Z,1.10
2019-03-09T14:08:02.213Z,1.50
2019-03-09T14:10:31.663Z,1.07
2019-03-09T14:13:00.693Z,1.13
2019-03-09T14:15:32.204Z,1.80
2019-03-09T14:18:01.206Z,1.17
2019-03-09T14:20:30.218Z,1.23
2019-03-09T14:23:08.629Z,1.20
2019-03-09T14:25:37.886Z,1.00
2019-03-09T14:28:07.618Z,1.60
2019-03-09T14:30:36.979Z,1.53
2019-03-09T14:33:10.837Z,1.00
2019-03-09T14:35:39.620Z,0.80
2019-03-09T14:38:08.409Z,1.30
2019-03-09T14:40:37.916Z,0.93
2019-03-09T14:43:09.142Z,4.60
2019-03-09T14:45:38.042Z,1.10
2019-03-09T14:48:06.642Z,1.10
2019-03-09T14:50:35.282Z,1.10
2019-03-09T14:53:03.913Z,1.70
2019-03-09T14:55:32.541Z,0.97
2019-03-09T14:58:01.238Z,1.00
2019-03-09T15:00:29.938Z,1.10
2019-03-09T15:02:58.573Z,1.87
2019-03-09T15:05:27.289Z,1.27
2019-03-09T15:07:55.926Z,2.50
2019-03-09T15:10:24.569Z,1.67
2019-03-09T15:12:53.247Z,1.73
2019-03-09T15:15:21.927Z,0.80
2019-03-09T15:17:50.617Z,1.30
2019-03-09T15:20:19.376Z,1.77
2019-03-09T15:22:48.073Z,2.03
2019-03-09T15:25:16.678Z,1.13
2019-03-09T15:27:45.382Z,2.40
2019-03-09T15:30:14.669Z,1.20
2019-03-09T15:32:43.379Z,1.30
2019-03-09T15:35:12.228Z,1.60
2019-03-09T15:37:40.986Z,1.10
2019-03-09T15:40:09.722Z,1.87
2019-03-09T15:42:38.440Z,1.17
2019-03-09T15:45:07.656Z,1.37
2019-03-09T15:47:36.415Z,1.50
2019-03-09T15:50:05.524Z,0.90
2019-03-09T15:52:34.354Z,1.70
2019-03-09T16:00:53.336Z,1.60
2019-03-09T16:03:44.369Z,3.13
2019-03-09T16:06:31.015Z,1.33
2019-03-09T16:09:28.376Z,1.23
2019-03-09T16:12:11.411Z,3.10
2019-03-09T16:14:43.664Z,2.70
2019-03-09T16:17:12.362Z,2.63
2019-03-09T16:19:41.008Z,3.17
2019-03-09T16:22:10.611Z,3.37
2019-03-09T16:24:39.227Z,3.63
2019-03-09T16:27:07.865Z,2.53
2019-03-09T16:29:36.489Z,3.47
2019-03-09T16:32:05.254Z,6.93
2019-03-09T16:34:33.891Z,4.00
2019-03-09T16:37:02.627Z,3.63
2019-03-09T16:39:31.373Z,1.87
2019-03-09T16:41:59.999Z,5.13
2019-03-09T16:44:28.637Z,3.03
2019-03-09T16:46:57.376Z,6.13
2019-03-09T16:49:26.036Z,5.27
2019-03-09T16:51:54.670Z,5.43
2019-03-09T16:54:23.360Z,2.63
2019-03-09T16:56:51.975Z,5.80
2019-03-09T16:59:20.640Z,2.80
2019-03-09T17:01:49.317Z,3.60
2019-03-09T17:04:17.917Z,5.30
2019-03-09T17:06:46.557Z,7.50
2019-03-09T17:09:15.274Z,8.27
2019-03-09T17:11:44.123Z,5.23
2019-03-09T17:14:12.872Z,6.40
2019-03-09T17:16:41.531Z,3.13
2019-03-09T17:19:10.159Z,4.37
2019-03-09T17:21:38.810Z,11.23
2019-03-09T17:24:07.567Z,7.10
2019-03-09T17:26:36.307Z,5.80
2019-03-09T17:29:05.001Z,9.93
2019-03-09T17:31:33.722Z,6.77
2019-03-09T17:34:02.342Z,7.93
2019-03-09T17:36:30.993Z,11.27
2019-03-09T17:38:59.609Z,5.23
2019-03-09T17:41:28.326Z,6.93
2019-03-09T17:43:56.958Z,4.83
2019-03-09T17:46:25.772Z,6.90
2019-03-09T17:48:54.391Z,6.73
2019-03-09T17:51:23.118Z,6.43
2019-03-09T17:53:51.756Z,5.80
2019-03-09T17:56:20.399Z,8.43
2019-03-09T17:58:49.087Z,9.80
2019-03-09T18:01:17.715Z,5.13
2019-03-09T18:03:46.420Z,5.53
2019-03-09T18:06:15.096Z,8.57
2019-03-09T18:08:43.709Z,5.73
2019-03-09T18:11:12.520Z,6.17
2019-03-09T18:13:41.159Z,8.83
2019-03-09T18:16:13.124Z,6.87
2019-03-09T18:18:42.923Z,8.53
2019-03-09T18:21:13.585Z,7.33
2019-03-09T18:23:44.641Z,7.83
2019-03-09T18:26:16.033Z,9.60
2019-03-09T18:28:44.753Z,6.83
2019-03-09T18:31:13.662Z,4.00
2019-03-09T18:33:46.268Z,6.17
2019-03-09T18:36:15.241Z,4.03
2019-03-09T18:38:45.257Z,7.00
2019-03-09T18:41:25.274Z,9.93
2019-03-09T18:44:09.727Z,7.93
2019-03-09T18:46:47.342Z,6.23
2019-03-09T18:49:18.211Z,6.27
2019-03-09T18:51:47.599Z,7.17
2019-03-09T18:54:19.225Z,7.00
2019-03-09T18:56:55.069Z,4.33
2019-03-09T18:59:29.400Z,3.40
2019-03-09T19:01:59.299Z,11.10
2019-03-09T19:04:28.516Z,11.67
2019-03-09T19:06:58.841Z,11.10
2019-03-09T19:09:48.995Z,10.90
2019-03-09T19:12:18.773Z,6.17
2019-03-09T19:14:51.032Z,4.83
2019-03-09T19:17:20.534Z,8.73
2019-03-09T19:19:49.900Z,6.97
2019-03-09T19:22:34.108Z,7.20
2019-03-09T19:25:04.961Z,6.60
2019-03-09T19:27:35.352Z,7.85
2019-03-09T19:30:07.315Z,6.00
2019-03-09T19:32:36.163Z,6.92
2019-03-09T19:35:06.982Z,12.73
2019-03-09T19:37:39.977Z,8.23
2019-03-09T19:40:10.675Z,10.68
2019-03-09T19:42:42.690Z,6.90
2019-03-09T19:45:15.066Z,8.45
2019-03-09T19:47:47.865Z,9.58
2019-03-09T19:50:17.766Z,5.72
2019-03-09T19:52:47.139Z,9.15
2019-03-09T19:55:16.454Z,6.55
2019-03-09T19:57:49.243Z,6.67
2019-03-09T20:00:18.500Z,11.17
2019-03-09T20:02:47.651Z,8.70
2019-03-09T20:05:18.794Z,7.90
2019-03-09T20:07:49.358Z,7.65
2019-03-09T20:10:38.575Z,13.93
2019-03-09T20:13:07.287Z,9.05
2019-03-09T20:15:37.438Z,10.32
2019-03-09T20:18:06.672Z,10.75
2019-03-09T20:20:39.496Z,11.95
2019-03-09T20:23:11.588Z,8.80
2019-03-09T20:25:41.125Z,10.45
2019-03-09T20:28:12.291Z,9.63
2019-03-09T20:30:42.601Z,11.50
2019-03-09T20:33:13.142Z,8.88
2019-03-09T20:35:42.998Z,6.57
2019-03-09T20:38:15.139Z,8.00
2019-03-09T20:40:46.325Z,10.83
2019-03-09T20:43:15.792Z,10.23
2019-03-09T20:45:44.553Z,8.40
2019-03-09T20:48:14.478Z,13.83
2019-03-09T20:50:43.296Z,6.80
2019-03-09T20:53:12.241Z,10.53
2019-03-09T20:55:41.428Z,11.18
2019-03-09T20:58:13.525Z,10.77
2019-03-09T21:00:43.269Z,14.28
2019-03-09T21:03:12.512Z,11.60
2019-03-09T21:05:42.978Z,13.97
2019-03-09T21:08:12.182Z,8.40
2019-03-09T21:10:44.563Z,7.33
2019-03-09T21:13:14.904Z,11.20
2019-03-09T21:15:48.940Z,14.00
2019-03-09T21:18:17.933Z,14.93
2019-03-09T21:20:46.686Z,11.97
2019-03-09T21:23:16.901Z,13.20
2019-03-09T21:25:47.661Z,15.83
2019-03-09T21:28:17.983Z,17.83
2019-03-09T21:30:46.658Z,10.47
2019-03-09T21:33:17.170Z,10.97
2019-03-09T21:35:46.110Z,11.70
2019-03-09T21:38:15.193Z,8.00
2019-03-09T21:40:44.725Z,10.13
2019-03-09T21:43:27.370Z,13.17
2019-03-09T21:45:56.412Z,8.80
2019-03-09T21:48:25.838Z,16.10
2019-03-09T21:51:01.876Z,11.57
2019-03-09T21:53:35.610Z,11.90
2019-03-09T21:56:12.963Z,14.93
2019-03-09T21:58:42.156Z,12.23
2019-03-09T22:01:11.895Z,8.13
2019-03-09T22:03:42.855Z,10.13
2019-03-09T22:06:13.188Z,15.50
2019-03-09T22:08:45.977Z,9.43
2019-03-09T22:11:16.990Z,16.70
2019-03-09T22:13:48.052Z,14.87
2019-03-09T22:16:17.727Z,11.15
2019-03-09T22:18:48.710Z,15.10
2019-03-09T22:21:20.588Z,9.97
2019-03-09T22:23:51.725Z,13.63
2019-03-09T22:26:22.274Z,13.30
2019-03-09T22:28:51.344Z,11.40
2019-03-09T22:31:22.473Z,13.23
2019-03-09T22:33:55.214Z,17.53
2019-03-09T22:36:26.021Z,16.40
2019-03-09T22:38:54.885Z,11.87
2019-03-09T22:41:24.335Z,13.67
2019-03-09T22:43:55.692Z,13.70
2019-03-09T22:46:25.417Z,7.70
2019-03-09T22:48:56.403Z,12.43
2019-03-09T22:51:25.613Z,12.30
2019-03-09T22:53:55.926Z,11.83
2019-03-09T22:56:35.541Z,14.80
2019-03-09T22:59:06.545Z,15.30
2019-03-09T23:01:40.942Z,11.67
2019-03-09T23:04:10.005Z,10.77
2019-03-09T23:06:40.543Z,13.30
2019-03-09T23:09:13.340Z,12.90
2019-03-09T23:11:43.285Z,11.60
2019-03-09T23:14:16.641Z,15.00
2019-03-09T23:16:46.917Z,8.00
2019-03-09T23:19:17.363Z,17.17
2019-03-09T23:21:48.392Z,10.87
2019-03-09T23:24:21.092Z,12.30
2019-03-09T23:26:52.320Z,10.80
2019-03-09T23:29:22.230Z,11.97
2019-03-09T23:31:51.634Z,12.80
2019-03-09T23:34:21.209Z,12.53
2019-03-09T23:36:52.543Z,5.87
2019-03-09T23:39:21.367Z,14.83
2019-03-09T23:41:50.241Z,11.43
2019-03-09T23:44:21.394Z,15.17
2019-03-09T23:46:53.939Z,13.20
2019-03-09T23:49:24.028Z,12.77
2019-03-09T23:51:52.801Z,12.50
2019-03-09T23:54:25.478Z,9.97
2019-03-09T23:56:54.776Z,19.40
2019-03-09T23:59:23.578Z,12.13
